createdAt,value
2023-05-04T00:00:10.694Z,39.78
2023-05-04T00:02:37.701Z,39.81
2023-05-04T00:05:06.460Z,40.10
2023-05-04T00:07:33.354Z,40.02
2023-05-04T00:10:00.434Z,39.89
2023-05-04T00:12:27.644Z,40.16
2023-05-04T00:14:54.577Z,40.33
2023-05-04T00:17:21.375Z,40.71
2023-05-04T00:19:48.203Z,40.45
2023-05-04T00:22:15.142Z,40.90
2023-05-04T00:24:44.280Z,40.98
2023-05-04T00:27:11.504Z,41.05
2023-05-04T00:29:38.308Z,41.32
2023-05-04T00:32:05.599Z,41.37
2023-05-04T00:34:34.545Z,41.34
2023-05-04T00:37:01.557Z,41.25
2023-05-04T00:39:28.591Z,41.42
2023-05-04T00:41:55.566Z,41.63
2023-05-04T00:44:24.304Z,41.56
2023-05-04T00:46:53.075Z,41.93
2023-05-04T00:49:21.803Z,42.04
2023-05-04T00:51:49.953Z,42.01
2023-05-04T00:54:18.362Z,41.83
2023-05-04T00:56:45.626Z,42.04
2023-05-04T00:59:14.573Z,41.87
2023-05-04T01:01:41.728Z,42.40
2023-05-04T01:04:09.009Z,42.14
2023-05-04T01:06:48.848Z,41.95
2023-05-04T01:09:22.599Z,41.99
2023-05-04T01:11:59.403Z,42.44
2023-05-04T01:14:26.162Z,42.14
2023-05-04T01:16:56.571Z,42.22
2023-05-04T01:19:23.479Z,42.16
2023-05-04T01:21:50.337Z,42.46
2023-05-04T01:24:17.319Z,42.26
2023-05-04T01:26:45.919Z,42.33
2023-05-04T01:29:23.120Z,42.20
2023-05-04T01:31:50.285Z,42.66
2023-05-04T01:34:17.642Z,42.27
2023-05-04T01:36:46.032Z,42.35
2023-05-04T01:39:16.348Z,42.66
2023-05-04T01:41:43.297Z,42.78
2023-05-04T01:44:10.076Z,42.59
2023-05-04T01:46:37.038Z,42.46
2023-05-04T01:49:03.944Z,42.92
2023-05-04T01:51:30.779Z,42.74
2023-05-04T01:53:57.626Z,42.72
2023-05-04T01:56:24.532Z,42.80
2023-05-04T01:58:51.541Z,43.01
2023-05-04T02:01:18.302Z,42.87
2023-05-04T02:03:45.280Z,42.74
2023-05-04T02:06:12.118Z,42.78
2023-05-04T02:08:39.431Z,43.28
2023-05-04T02:11:06.239Z,43.17
2023-05-04T02:13:33.129Z,43.13
2023-05-04T02:15:59.997Z,43.22
2023-05-04T02:18:27.078Z,43.01
2023-05-04T02:20:53.943Z,42.94
2023-05-04T02:23:20.736Z,42.93
2023-05-04T02:25:47.626Z,43.12
2023-05-04T02:28:14.422Z,43.35
2023-05-04T02:30:41.890Z,43.37
2023-05-04T02:33:09.557Z,43.44
2023-05-04T02:35:37.156Z,43.47
2023-05-04T02:38:04.010Z,43.03
2023-05-04T02:40:30.745Z,43.40
2023-05-04T02:42:57.535Z,43.80
2023-05-04T02:45:24.395Z,43.47
2023-05-04T02:47:51.265Z,43.95
2023-05-04T02:50:18.060Z,43.69
2023-05-04T02:52:44.937Z,44.04
2023-05-04T02:55:11.785Z,44.18
2023-05-04T02:57:38.770Z,43.99
2023-05-04T03:00:07.366Z,44.34
2023-05-04T03:02:34.862Z,44.07
2023-05-04T03:05:02.203Z,44.30
2023-05-04T03:07:29.418Z,44.32
2023-05-04T03:09:56.403Z,43.95
2023-05-04T03:12:23.203Z,44.23
2023-05-04T03:14:49.968Z,44.16
2023-05-04T03:17:16.849Z,44.16
2023-05-04T03:19:44.087Z,44.16
2023-05-04T03:22:11.025Z,44.02
2023-05-04T03:24:38.226Z,44.11
2023-05-04T03:27:05.024Z,44.12
2023-05-04T03:29:31.981Z,44.40
2023-05-04T03:31:58.805Z,44.25
2023-05-04T03:34:25.790Z,44.28
2023-05-04T03:36:52.932Z,44.23
2023-05-04T03:39:19.791Z,44.22
2023-05-04T03:41:46.653Z,44.50
2023-05-04T03:44:13.622Z,44.24
2023-05-04T03:46:40.672Z,44.54
2023-05-04T03:49:07.570Z,44.26
2023-05-04T03:51:34.369Z,44.30
2023-05-04T03:54:01.900Z,44.11
2023-05-04T03:56:28.616Z,44.50
2023-05-04T03:58:55.470Z,44.34
2023-05-04T04:01:22.250Z,44.24
2023-05-04T04:03:49.251Z,44.09
2023-05-04T04:06:16.306Z,44.58
2023-05-04T04:08:43.219Z,44.43
2023-05-04T04:11:09.945Z,44.53
2023-05-04T04:13:36.741Z,44.62
2023-05-04T04:16:03.611Z,44.80
2023-05-04T04:18:30.505Z,44.58
2023-05-04T04:20:57.364Z,44.82
2023-05-04T04:23:24.400Z,44.75
2023-05-04T04:25:51.646Z,44.67
2023-05-04T04:28:18.519Z,44.62
2023-05-04T04:30:45.553Z,44.88
2023-05-04T04:33:12.740Z,44.88
2023-05-04T04:35:39.536Z,44.52
2023-05-04T04:38:07.302Z,44.69
2023-05-04T04:40:34.191Z,44.56
2023-05-04T04:43:01.055Z,44.92
2023-05-04T04:45:28.204Z,44.80
2023-05-04T04:47:55.049Z,45.00
2023-05-04T04:50:21.882Z,44.98
2023-05-04T04:52:48.688Z,44.71
2023-05-04T04:55:16.995Z,44.59
2023-05-04T04:57:46.302Z,45.14
2023-05-04T05:00:14.826Z,44.98
2023-05-04T05:02:41.688Z,45.01
2023-05-04T05:05:11.568Z,44.89
2023-05-04T05:07:38.567Z,45.05
2023-05-04T05:10:05.989Z,44.91
2023-05-04T05:12:32.893Z,45.07
2023-05-04T05:14:59.714Z,44.90
2023-05-04T05:17:26.740Z,44.68
2023-05-04T05:19:54.153Z,44.95
2023-05-04T05:22:20.943Z,44.64
2023-05-04T05:24:47.669Z,45.26
2023-05-04T05:27:14.620Z,45.03
2023-05-04T05:29:42.152Z,44.95
2023-05-04T05:32:08.972Z,45.33
2023-05-04T05:34:39.220Z,45.11
2023-05-04T05:37:06.214Z,45.00
2023-05-04T05:39:33.281Z,45.31
2023-05-04T05:42:00.210Z,45.45
2023-05-04T05:44:30.256Z,45.48
2023-05-04T05:46:57.161Z,45.02
2023-05-04T05:49:23.995Z,45.40
2023-05-04T05:51:50.937Z,44.99
2023-05-04T05:54:17.809Z,45.18
2023-05-04T05:56:44.701Z,45.15
2023-05-04T05:59:11.557Z,45.26
2023-05-04T06:01:38.446Z,45.50
2023-05-04T06:04:05.568Z,45.33
2023-05-04T06:06:35.000Z,45.53
2023-05-04T06:09:01.927Z,45.52
2023-05-04T06:11:28.860Z,45.18
2023-05-04T06:13:55.763Z,45.53
2023-05-04T06:16:22.649Z,45.29
2023-05-04T06:18:49.553Z,45.64
2023-05-04T06:21:16.582Z,45.73
2023-05-04T06:23:43.494Z,45.46
2023-05-04T06:26:10.322Z,45.91
2023-05-04T06:28:37.478Z,46.07
2023-05-04T06:31:04.452Z,45.65
2023-05-04T06:33:31.502Z,45.39
2023-05-04T06:36:01.109Z,45.03
2023-05-04T06:38:28.256Z,44.69
2023-05-04T06:40:55.121Z,43.90
2023-05-04T06:43:22.186Z,42.37
2023-05-04T06:45:49.138Z,42.54
2023-05-04T06:48:16.167Z,42.35
2023-05-04T06:50:43.198Z,41.73
2023-05-04T06:53:12.281Z,41.15
2023-05-04T06:55:39.260Z,41.12
2023-05-04T06:58:08.483Z,40.90
2023-05-04T07:00:35.676Z,41.21
2023-05-04T07:03:02.797Z,40.88
2023-05-04T07:05:30.136Z,40.69
2023-05-04T07:07:59.366Z,40.80
2023-05-04T07:10:26.661Z,40.45
2023-05-04T07:12:54.236Z,40.70
2023-05-04T07:15:21.774Z,40.60
2023-05-04T07:17:49.020Z,40.71
2023-05-04T07:20:16.393Z,40.60
2023-05-04T07:22:43.589Z,41.33
2023-05-04T07:25:10.802Z,41.31
2023-05-04T07:27:37.958Z,41.17
2023-05-04T07:30:07.248Z,41.80
2023-05-04T07:32:34.618Z,41.70
2023-05-04T07:35:01.617Z,41.80
2023-05-04T07:37:28.508Z,41.64
2023-05-04T07:40:01.892Z,41.55
2023-05-04T07:42:31.378Z,41.74
2023-05-04T07:44:58.756Z,41.66
2023-05-04T07:47:26.027Z,41.47
2023-05-04T07:50:04.048Z,41.42
2023-05-04T07:52:31.339Z,41.54
2023-05-04T07:54:58.191Z,41.09
2023-05-04T07:57:25.202Z,41.22
2023-05-04T07:59:57.819Z,41.34
2023-05-04T08:02:25.046Z,42.66
2023-05-04T08:04:52.113Z,42.49
2023-05-04T08:07:19.638Z,42.75
2023-05-04T08:09:55.000Z,42.39
2023-05-04T08:12:21.979Z,42.61
2023-05-04T08:14:49.010Z,42.26
2023-05-04T08:17:16.129Z,42.30
2023-05-04T08:19:43.072Z,42.39
2023-05-04T08:22:10.710Z,42.29
2023-05-04T08:24:37.654Z,42.48
2023-05-04T08:27:08.948Z,42.10
2023-05-04T08:29:37.799Z,42.09
2023-05-04T08:32:05.310Z,42.08
2023-05-04T08:34:32.270Z,42.13
2023-05-04T08:36:59.467Z,42.22
2023-05-04T08:39:26.470Z,42.64
2023-05-04T08:41:53.778Z,42.09
2023-05-04T08:44:22.413Z,42.33
2023-05-04T08:46:54.142Z,42.30
2023-05-04T08:49:21.703Z,42.41
2023-05-04T08:51:50.027Z,42.06
2023-05-04T08:54:17.289Z,42.08
2023-05-04T08:56:46.728Z,42.43
2023-05-04T08:59:19.875Z,42.43
2023-05-04T09:01:47.974Z,42.57
2023-05-04T09:04:15.157Z,42.20
2023-05-04T09:06:42.205Z,42.13
2023-05-04T09:09:10.799Z,42.55
2023-05-04T09:11:38.111Z,42.44
2023-05-04T09:14:05.192Z,42.32
2023-05-04T09:16:36.800Z,42.53
2023-05-04T09:19:05.367Z,42.32
2023-05-04T09:21:32.791Z,42.22
2023-05-04T09:23:59.920Z,42.29
2023-05-04T09:26:28.336Z,42.46
2023-05-04T09:28:55.547Z,42.22
2023-05-04T09:31:23.887Z,42.31
2023-05-04T09:33:53.272Z,42.42
2023-05-04T09:36:22.292Z,42.41
2023-05-04T09:38:49.543Z,42.10
2023-05-04T09:41:16.737Z,42.01
2023-05-04T09:43:45.497Z,41.96
2023-05-04T09:46:20.215Z,42.06
2023-05-04T09:48:56.185Z,41.89
2023-05-04T09:51:24.553Z,42.13
2023-05-04T09:53:52.713Z,41.81
2023-05-04T09:56:27.364Z,41.75
2023-05-04T09:58:58.054Z,42.00
2023-05-04T10:01:29.535Z,42.15
2023-05-04T10:03:57.084Z,42.14
2023-05-04T10:06:24.872Z,41.82
2023-05-04T10:08:52.106Z,41.78
2023-05-04T10:11:20.800Z,41.69
2023-05-04T10:13:49.264Z,42.13
2023-05-04T10:16:26.215Z,41.79
2023-05-04T10:19:03.352Z,42.03
2023-05-04T10:21:35.100Z,41.73
2023-05-04T10:24:14.774Z,41.96
2023-05-04T10:26:51.894Z,41.76
2023-05-04T10:29:23.780Z,42.04
2023-05-04T10:31:51.841Z,41.82
2023-05-04T10:34:27.492Z,41.63
2023-05-04T10:36:55.028Z,41.82
2023-05-04T10:39:23.126Z,41.55
2023-05-04T10:41:59.751Z,41.80
2023-05-04T10:44:29.527Z,41.80
2023-05-04T10:46:59.564Z,41.81
2023-05-04T10:49:27.100Z,41.98
2023-05-04T10:52:03.848Z,41.96
2023-05-04T10:54:34.533Z,41.92
2023-05-04T10:57:03.336Z,41.63
2023-05-04T10:59:30.380Z,41.64
2023-05-04T11:01:57.672Z,42.10
2023-05-04T11:04:25.069Z,41.93
2023-05-04T11:06:58.093Z,41.62
2023-05-04T11:09:27.270Z,41.88
2023-05-04T11:11:54.843Z,42.18
2023-05-04T11:14:25.538Z,42.04
2023-05-04T11:16:52.884Z,41.98
2023-05-04T11:19:20.193Z,41.90
2023-05-04T11:21:47.814Z,42.18
2023-05-04T11:24:15.087Z,42.14
2023-05-04T11:26:50.309Z,42.17
2023-05-04T11:29:17.613Z,42.09
2023-05-04T11:31:56.601Z,41.85
2023-05-04T11:34:24.139Z,42.17
2023-05-04T11:36:51.152Z,41.94
2023-05-04T11:39:18.569Z,42.03
2023-05-04T11:41:45.679Z,41.74
2023-05-04T11:44:13.692Z,42.03
2023-05-04T11:46:41.170Z,42.02
2023-05-04T11:49:08.338Z,41.82
2023-05-04T11:51:35.321Z,42.16
2023-05-04T11:54:03.101Z,41.84
2023-05-04T11:56:30.316Z,42.03
2023-05-04T11:59:07.997Z,41.96
2023-05-04T12:01:35.710Z,41.89
2023-05-04T12:04:03.193Z,42.20
2023-05-04T12:06:32.534Z,42.31
2023-05-04T12:09:03.800Z,41.85
2023-05-04T12:11:30.818Z,42.17
2023-05-04T12:14:07.932Z,41.89
2023-05-04T12:16:35.195Z,42.28
2023-05-04T12:19:05.626Z,42.32
2023-05-04T12:21:33.724Z,42.23
2023-05-04T12:24:01.450Z,42.08
2023-05-04T12:26:29.250Z,41.85
2023-05-04T12:28:56.916Z,41.99
2023-05-04T12:31:25.479Z,42.09
2023-05-04T12:33:52.980Z,41.95
2023-05-04T12:36:20.202Z,42.25
2023-05-04T12:38:47.416Z,41.95
2023-05-04T12:41:14.577Z,41.96
2023-05-04T12:43:42.098Z,41.92
2023-05-04T12:46:09.436Z,41.97
2023-05-04T12:48:37.617Z,41.98
2023-05-04T12:51:05.525Z,41.94
2023-05-04T12:53:32.816Z,42.19
2023-05-04T12:56:00.738Z,41.78
2023-05-04T12:58:28.269Z,41.83
2023-05-04T13:00:55.951Z,42.27
2023-05-04T13:03:24.088Z,42.27
2023-05-04T13:05:53.295Z,42.17
2023-05-04T13:08:20.510Z,42.07
2023-05-04T13:10:52.705Z,42.08
2023-05-04T13:13:21.739Z,41.91
2023-05-04T13:15:52.615Z,42.24
2023-05-04T13:18:19.862Z,41.89
2023-05-04T13:20:49.536Z,41.87
2023-05-04T13:23:16.983Z,41.92
2023-05-04T13:25:44.730Z,42.12
2023-05-04T13:28:13.377Z,41.96
2023-05-04T13:30:40.426Z,42.28
2023-05-04T13:33:16.814Z,41.97
2023-05-04T13:35:48.259Z,42.11
2023-05-04T13:38:15.399Z,42.33
2023-05-04T13:40:44.493Z,42.15
2023-05-04T13:43:11.726Z,41.81
2023-05-04T13:45:39.579Z,42.07
2023-05-04T13:48:07.111Z,42.34
2023-05-04T13:50:34.341Z,42.00
2023-05-04T13:53:01.779Z,41.89
2023-05-04T13:55:28.785Z,42.29
2023-05-04T13:57:55.948Z,42.12
2023-05-04T14:03:19.345Z,41.97
2023-05-04T14:05:47.138Z,42.07
2023-05-04T14:08:16.524Z,42.30
2023-05-04T14:10:43.858Z,41.97
2023-05-04T14:13:11.219Z,42.14
2023-05-04T14:15:38.773Z,42.46
2023-05-04T14:18:06.246Z,41.99
2023-05-04T14:20:33.782Z,42.04
2023-05-04T14:23:01.030Z,42.29
2023-05-04T14:25:31.132Z,42.23
2023-05-04T14:27:58.364Z,42.21
2023-05-04T14:30:29.029Z,42.75
2023-05-04T14:32:57.322Z,42.84
2023-05-04T14:35:24.725Z,42.39
2023-05-04T14:37:51.955Z,42.71
2023-05-04T14:40:19.243Z,42.67
2023-05-04T14:42:46.410Z,42.47
2023-05-04T14:45:13.948Z,42.62
2023-05-04T14:47:42.801Z,42.60
2023-05-04T14:50:12.421Z,42.34
2023-05-04T14:52:43.356Z,42.42
2023-05-04T14:55:10.574Z,42.30
2023-05-04T14:57:37.843Z,42.74
2023-05-04T15:00:08.913Z,42.74
2023-05-04T15:02:39.202Z,42.46
2023-05-04T15:05:07.004Z,42.81
2023-05-04T15:07:33.997Z,42.33
2023-05-04T15:10:18.699Z,42.44
2023-05-04T15:12:46.222Z,42.84
2023-05-04T15:15:13.382Z,42.46
2023-05-04T15:17:40.587Z,42.49
2023-05-04T15:20:08.663Z,42.85
2023-05-04T15:22:36.040Z,42.40
2023-05-04T15:25:16.470Z,42.72
2023-05-04T15:27:44.279Z,42.77
2023-05-04T15:33:01.201Z,42.92
2023-05-04T16:31:03.069Z,43.78
2023-05-04T16:33:58.524Z,43.61
2023-05-04T16:36:26.149Z,43.79
2023-05-04T17:02:53.602Z,43.86
2023-05-04T17:14:46.772Z,43.83
2023-05-04T17:17:42.333Z,43.61
2023-05-04T17:26:46.426Z,43.84
2023-05-04T17:29:13.740Z,44.16
2023-05-04T17:31:41.209Z,43.87
2023-05-04T17:34:08.973Z,43.88
2023-05-04T17:36:36.713Z,44.03
2023-05-04T17:45:41.173Z,44.18
2023-05-04T17:48:09.398Z,44.13
2023-05-04T17:50:37.237Z,44.07
2023-05-04T17:53:04.768Z,43.91
2023-05-04T17:55:32.401Z,44.10
2023-05-04T18:04:38.048Z,43.93
2023-05-04T18:07:05.860Z,44.21
2023-05-04T18:09:33.081Z,44.50
2023-05-04T18:12:00.444Z,44.06
2023-05-04T18:14:27.958Z,44.50
2023-05-04T18:16:55.416Z,44.56
